METAR Data
IDs: Format: Raw Decoded Include TAF

Data at: 0545 UTC 26 Sep 2018

KM19 260456Z AUTO 13003KT 10SM CLR 22/21 A3000 RMK AO2 SLP160 T02170211 403000217
KM19 260356Z AUTO 22004KT 10SM OVC100 24/22 A3001 RMK AO2 SLP163 T02440217
KM19 260256Z AUTO 21004KT 10SM OVC100 24/22 A3000 RMK AO2 SLP160 T02390217 51018
KM19 260156Z AUTO 20006KT 10SM SCT110 24/22 A2998 RMK AO2 SLP155 T02390217
KM19 252356Z AUTO 21005KT 10SM SCT120 27/22 A2995 RMK AO2 SLP142 T02670217 10300 20267 53008
KM19 252256Z AUTO 23009KT 10SM CLR 29/21 A2993 RMK AO2 SLP135 T02890211
KM19 252156Z AUTO 22010KT 10SM CLR 29/21 A2991 RMK AO2 SLP131 T02940211
KM19 252056Z AUTO 22011KT 10SM FEW042 SCT049 SCT060 29/21 A2992 RMK AO2 SLP134 T02940206 56021
KM19 251856Z AUTO 23007KT 10SM SCT025 BKN070 27/22 A2996 RMK AO2 SLP148 T02720222
KM19 251729Z AUTO 22008KT 10SM SCT020 BKN065 26/23 A2999 RMK AO2 RAE15 P0000
KM19 251656Z AUTO 25013G18KT 10SM -RA SCT020 BKN027 OVC033 26/22 A2999 RMK AO2 RAB50 SLP158 P0000 T02560222
KM19 251626Z AUTO 21010KT 10SM BKN020 BKN028 OVC043 27/22 A2999 RMK AO2
KM19 251619Z AUTO 25006KT 10SM SCT022 BKN030 OVC045 27/22 A2999 RMK AO2
KM19 251612Z AUTO 25007KT 10SM SCT020 BKN028 OVC034 26/22 A2999 RMK AO2
KM19 251556Z AUTO 23007KT 10SM FEW024 BKN030 OVC070 26/22 A3000 RMK AO2 SLP160 T02560217
KM19 251356Z AUTO 20008KT 10SM SCT006 24/22 A2998 RMK AO2 SLP154 T02390222
KM19 251319Z AUTO 21008KT 9SM FEW004 23/23 A2998 RMK AO2
KM19 251256Z AUTO 20006KT 8SM CLR 23/23 A2998 RMK AO2 SLP155 T02280228
KM19 251223Z AUTO 20006KT 7SM SCT006 BKN060 23/22 A2998 RMK AO2
KM19 251156Z AUTO 20006KT 7SM BKN006 OVC070 23/23 A2997 RMK AO2 CIG 005V010 SLP152 60000 7//// T02280228 10233 20222 53014
KM19 251124Z AUTO 20007KT 8SM OVC006 23/23 A2996 RMK AO2 CIG 004V009
KM19 251056Z AUTO 20008KT 9SM OVC004 23/23 A2995 RMK AO2 SLP144 T02330228
KM19 251003Z AUTO 20008KT 10SM OVC004 23/23 A2994 RMK AO2
KM19 250956Z AUTO 20008KT 10SM OVC006 23/23 A2994 RMK AO2 SLP138 T02330228
KM19 250856Z AUTO 18004KT 10SM BKN008 BKN011 OVC060 23/22 A2993 RMK AO2 RAB33E45 SLP137 P0000 60000 T02280222 53002
KM19 250843Z AUTO 17004KT 10SM -RA BKN008 OVC065 23/22 A2993 RMK AO2 RAB33 CIG 007V010 P0000
KM19 250756Z AUTO 18005KT 10SM OVC070 23/22 A2993 RMK AO2 SLP137 T02280222
KM19 250656Z AUTO 15006KT 10SM FEW039 SCT075 22/22 A2992 RMK AO2 SLP135 T02220222
KM19 250556Z AUTO 18005KT 10SM FEW055 OVC075 23/22 A2993 RMK AO2 SLP136 6//// T02280222 10244 20228 58002
KM19 250526Z AUTO 15007KT 10SM SCT028 BKN060 OVC070 23/22 A2993 RMK AO2
KM19 250515Z AUTO 17005KT 10SM BKN028 BKN035 OVC055 23/22 A2993 RMK AO2
KM19 250456Z AUTO 17005KT 10SM BKN031 BKN038 OVC050 23/23 A2993 RMK AO2 SLP138 T02330228 402780189 PNO $
KM19 250412Z AUTO 17004KT 10SM FEW014 SCT070 SCT085 23/23 A2992 RMK AO2 LTG DSNT NE PNO $
KM19 250356Z AUTO 16005KT 10SM BKN016 BKN070 OVC120 23/23 A2993 RMK AO2 TSB03E18RAE23 SLP138 T02330228 PNO $
KM19 250327Z AUTO 12004KT 9SM FEW008 BKN019 OVC040 23/23 A2993 RMK AO2 LTG DSNT SE TSB03E18RAE23 PNO $
KM19 250320Z AUTO 12003KT 7SM -RA FEW011 BKN032 OVC040 23/23 A2993 RMK AO2 LTG DSNT SE TSB03E18 PNO $
KM19 250309Z AUTO 12006KT 3SM VCTS +RA BR SCT009 BKN017 OVC037 23/23 A2993 RMK AO2 TSB03 P0000
KM19 250256Z AUTO 09004KT 5SM -RA BR SCT013 BKN018 OVC038 23/23 A2993 RMK AO2 TSB10E28B36E51 SLP138 6//// T02330233 53012
KM19 250246Z AUTO 07006KT 5SM VCTS -RA BR FEW009 BKN015 OVC024 23/23 A2993 RMK AO2 TSB10E28B36
KM19 250236Z AUTO 36005KT 2 1/2SM VCTS +RA BR FEW009 SCT013 OVC019 23/23 A2993 RMK AO2 VIS 1 1/4V3 LTG DSNT SE TSB10E28B36
KM19 250226Z AUTO 34004KT 2SM VCTS RA BR SCT012 BKN019 OVC028 23/23 A2993 RMK AO2 LTG DSNT SE TSB10
KM19 250216Z AUTO 24003KT 4SM VCTS -RA BR SCT012 BKN020 OVC038 23/23 A2993 RMK AO2 TSB10 PNO $
KM19 250206Z AUTO 35003KT 3SM RA BR FEW016 BKN023 OVC038 23/23 A2993 RMK AO2 PNO $
KM19 250156Z AUTO 00000KT 1 1/2SM +RA BR FEW015 BKN029 OVC038 23/23 A2993 RMK AO2 RAB01 SLP137 T02330228
KM19 250154Z AUTO 03003KT 1 3/4SM BR FEW015 BKN029 OVC038 23/23 A2993 RMK AO2 VIS 3/4V4 RAB01E54
KM19 250140Z AUTO 04003KT 3SM +RA BR FEW021 BKN029 OVC039 23/23 A2992 RMK AO2 RAB01 PNO $
KM19 250056Z AUTO 03005KT 7SM SCT075 BKN090 23/23 A2990 RMK AO2 SLP128 T02280228
KM19 242356Z AUTO 32003KT 10SM FEW026 BKN034 24/23 A2990 RMK AO2 SLP127 T02440233 10278 20244 53002
KM19 242256Z AUTO 00000KT 10SM BKN019 26/23 A2989 RMK AO2 SLP125 T02610233
KM19 242253Z AUTO 00000KT 10SM BKN021 26/23 A2989 RMK AO2
KM19 242156Z AUTO 22004KT 10SM SCT022 SCT029 27/23 A2989 RMK AO2 SLP124 T02720233
KM19 242108Z AUTO 20006KT 10SM BKN016 BKN090 27/23 A2990 RMK AO2
KM19 242056Z AUTO 21004KT 10SM BKN014 BKN090 27/23 A2989 RMK AO2 SLP126 T02670233 56021
KM19 241956Z AUTO 19007KT 10SM OVC012 26/23 A2990 RMK AO2 SLP128 T02610233
KM19 241927Z AUTO 21006KT 10SM BKN010 OVC014 26/23 A2992 RMK AO2 CIG 008V012
KM19 241856Z AUTO 20006KT 10SM OVC008 24/23 A2993 RMK AO2 CIG 007V012 SLP138 T02440228
KM19 241810Z AUTO 17005KT 10SM OVC006 23/22 A2995 RMK AO2 CIG 005V009
KM19 241756Z AUTO 18005KT 9SM OVC004 23/22 A2996 RMK AO2 SLP147 T02280222 10228 20194 58006